Time;durP1;ratioP1;P1;durP2;ratioP2;P2;SDS_P1;SDS_P2;PMS_P1;PMS_P2;Temp;Humidity;BMP_temperature;BMP_pressure;BME280_temperature;BME280_humidity;BME280_pressure;Samples;Min_cycle;Max_cycle;Signal;HPM_P1;HPM_P2
2022/01/08 00:00:39;;;;;;;1.05;0.95;;;;;;;;;;5029922;28;20087;-75
2022/01/08 00:03:05;;;;;;;1.10;1.00;;;;;;;;;;5028764;28;20032;-75
2022/01/08 00:05:30;;;;;;;1.60;1.08;;;;;;;;;;5029267;28;20059;-75
2022/01/08 00:07:55;;;;;;;1.05;0.93;;;;;;;;;;5028952;28;20115;-75
2022/01/08 00:10:22;;;;;;;1.67;1.15;;;;;;;;;;5029410;28;20029;-74
2022/01/08 00:12:49;;;;;;;1.92;0.90;;;;;;;;;;5028959;28;20104;-74
2022/01/08 00:15:14;;;;;;;1.08;0.90;;;;;;;;;;5032119;28;20450;-74
2022/01/08 00:17:40;;;;;;;1.58;1.02;;;;;;;;;;5032466;28;20034;-74
2022/01/08 00:20:06;;;;;;;1.83;0.90;;;;;;;;;;5033086;28;20057;-74
2022/01/08 00:22:32;;;;;;;0.82;0.80;;;;;;;;;;5032802;28;20056;-74
2022/01/08 00:24:57;;;;;;;1.00;0.80;;;;;;;;;;5032702;28;20450;-74
2022/01/08 00:27:23;;;;;;;1.85;0.90;;;;;;;;;;5032760;28;20029;-74
2022/01/08 00:29:49;;;;;;;1.20;0.95;;;;;;;;;;5033428;28;20025;-75
2022/01/08 00:32:15;;;;;;;1.85;1.30;;;;;;;;;;5032923;28;20040;-75
2022/01/08 00:34:43;;;;;;;1.40;1.30;;;;;;;;;;5022103;28;20109;-75
2022/01/08 00:37:09;;;;;;;1.00;0.90;;;;;;;;;;5012855;28;20032;-74
2022/01/08 00:39:35;;;;;;;2.53;1.25;;;;;;;;;;5013095;28;20021;-76
2022/01/08 00:42:00;;;;;;;1.75;1.10;;;;;;;;;;5012569;28;20048;-76
2022/01/08 00:44:25;;;;;;;1.92;1.50;;;;;;;;;;5012862;28;20025;-76
2022/01/08 00:46:51;;;;;;;1.98;1.25;;;;;;;;;;5032296;28;20114;-75
2022/01/08 00:49:16;;;;;;;1.58;1.35;;;;;;;;;;5032678;28;20419;-75
2022/01/08 00:51:42;;;;;;;1.63;1.02;;;;;;;;;;5023844;28;20167;-75
2022/01/08 00:54:07;;;;;;;1.13;0.93;;;;;;;;;;5030321;28;20108;-74
2022/01/08 00:56:32;;;;;;;1.77;1.23;;;;;;;;;;5032137;28;20025;-75
2022/01/08 00:58:58;;;;;;;1.40;1.30;;;;;;;;;;5032424;28;20033;-73
2022/01/08 01:01:23;;;;;;;1.42;1.10;;;;;;;;;;5032319;28;20025;-73
2022/01/08 01:03:48;;;;;;;2.00;1.40;;;;;;;;;;5031857;28;20501;-72
2022/01/08 01:06:13;;;;;;;1.33;1.05;;;;;;;;;;5032222;28;20120;-71
2022/01/08 01:08:39;;;;;;;1.38;1.10;;;;;;;;;;5030570;28;20430;-71
2022/01/08 01:11:04;;;;;;;2.05;1.35;;;;;;;;;;5032230;28;20036;-70
2022/01/08 01:13:30;;;;;;;2.22;1.60;;;;;;;;;;5031716;28;20095;-70
2022/01/08 01:15:55;;;;;;;2.03;1.30;;;;;;;;;;5031805;28;20505;-70
2022/01/08 01:18:20;;;;;;;1.92;1.40;;;;;;;;;;5031983;28;20052;-70
2022/01/08 01:20:46;;;;;;;2.80;1.40;;;;;;;;;;5032011;28;20076;-70
2022/01/08 01:23:14;;;;;;;2.15;1.25;;;;;;;;;;5031669;28;20040;-70
2022/01/08 01:25:47;;;;;;;1.75;1.42;;;;;;;;;;5029570;28;20104;-71
2022/01/08 01:28:31;;;;;;;1.47;1.37;;;;;;;;;;5031784;28;20037;-72
2022/01/08 01:41:08;;;;;;;2.17;1.38;;;;;;;;;;5032078;28;20417;-72
2022/01/08 01:47:03;;;;;;;3.65;1.35;;;;;;;;;;5012297;28;20167;-71
2022/01/08 01:49:34;;;;;;;2.40;1.63;;;;;;;;;;5011945;28;20418;-70
2022/01/08 01:52:00;;;;;;;2.60;1.90;;;;;;;;;;5011845;28;20048;-71
2022/01/08 01:54:27;;;;;;;1.63;1.50;;;;;;;;;;5011631;28;20407;-70
2022/01/08 01:56:54;;;;;;;2.80;1.77;;;;;;;;;;5011633;28;20109;-71
2022/01/08 01:59:19;;;;;;;3.47;1.70;;;;;;;;;;5019757;28;20044;-70
2022/01/08 02:01:45;;;;;;;2.00;1.40;;;;;;;;;;5032084;28;20037;-71
2022/01/08 02:04:11;;;;;;;2.20;1.50;;;;;;;;;;5030796;28;20457;-71
2022/01/08 02:06:36;;;;;;;1.73;1.20;;;;;;;;;;5031117;28;20037;-72
2022/01/08 02:09:01;;;;;;;1.90;1.30;;;;;;;;;;5030694;28;20028;-72
2022/01/08 02:11:27;;;;;;;3.00;1.60;;;;;;;;;;5031002;28;20438;-72
2022/01/08 02:14:01;;;;;;;1.45;1.10;;;;;;;;;;5030559;28;20463;-73
2022/01/08 02:16:27;;;;;;;1.30;1.20;;;;;;;;;;5019732;28;20121;-71
2022/01/08 02:18:52;;;;;;;1.27;1.00;;;;;;;;;;5010985;28;20026;-74
2022/01/08 02:21:18;;;;;;;1.38;1.23;;;;;;;;;;5012118;28;20072;-73
2022/01/08 02:23:43;;;;;;;2.45;1.70;;;;;;;;;;5010805;28;20021;-74
2022/01/08 02:26:10;;;;;;;1.50;1.40;;;;;;;;;;5011139;28;20098;-74
2022/01/08 02:28:37;;;;;;;1.45;1.35;;;;;;;;;;5010975;28;20034;-74
2022/01/08 02:31:03;;;;;;;1.35;1.25;;;;;;;;;;5011047;28;20029;-73
2022/01/08 02:33:29;;;;;;;1.52;1.42;;;;;;;;;;5011729;28;20183;-73
2022/01/08 02:35:56;;;;;;;1.50;1.40;;;;;;;;;;5010837;28;20028;-72
2022/01/08 02:38:21;;;;;;;2.05;1.60;;;;;;;;;;5023173;28;20248;-69
2022/01/08 02:40:55;;;;;;;1.60;1.50;;;;;;;;;;5030126;28;20068;-70
2022/01/08 02:43:23;;;;;;;5.70;3.33;;;;;;;;;;5029669;28;20379;-71
2022/01/08 02:45:48;;;;;;;6.35;3.78;;;;;;;;;;5030294;28;20068;-71
2022/01/08 02:48:13;;;;;;;3.92;2.55;;;;;;;;;;5029923;28;20534;-70
2022/01/08 02:50:38;;;;;;;1.88;1.45;;;;;;;;;;5025644;28;20029;-70
2022/01/08 02:53:03;;;;;;;1.67;1.55;;;;;;;;;;5018094;28;20034;-70
2022/01/08 02:55:29;;;;;;;1.20;1.10;;;;;;;;;;5010264;28;20030;-71
2022/01/08 02:57:54;;;;;;;1.30;1.20;;;;;;;;;;5010319;28;20037;-70
2022/01/08 03:00:20;;;;;;;1.40;1.20;;;;;;;;;;5027714;28;20032;-71
2022/01/08 03:02:50;;;;;;;1.20;1.10;;;;;;;;;;5030152;28;20555;-71
2022/01/08 03:05:16;;;;;;;1.45;1.35;;;;;;;;;;5029391;28;20101;-72
2022/01/08 03:07:44;;;;;;;2.03;1.40;;;;;;;;;;5028416;28;20040;-70
2022/01/08 03:10:11;;;;;;;1.58;1.33;;;;;;;;;;5030032;28;20026;-69
2022/01/08 03:12:41;;;;;;;1.60;1.50;;;;;;;;;;5029811;28;20029;-72
2022/01/08 03:15:10;;;;;;;1.40;1.10;;;;;;;;;;5029406;28;20033;-71
2022/01/08 03:17:36;;;;;;;0.82;0.82;;;;;;;;;;5029824;28;20059;-71
2022/01/08 03:20:06;;;;;;;1.42;1.00;;;;;;;;;;5029932;28;20021;-72
2022/01/08 03:22:32;;;;;;;1.25;1.00;;;;;;;;;;5030142;28;20021;-70
2022/01/08 03:24:57;;;;;;;1.73;1.10;;;;;;;;;;5028781;28;20074;-69
2022/01/08 03:27:23;;;;;;;1.30;1.20;;;;;;;;;;5029670;28;20048;-72
2022/01/08 03:29:48;;;;;;;1.40;1.23;;;;;;;;;;5029569;28;20033;-72
2022/01/08 03:32:13;;;;;;;2.05;1.45;;;;;;;;;;5029904;28;20032;-72
2022/01/08 03:34:39;;;;;;;1.30;1.20;;;;;;;;;;5028972;28;20256;-71
2022/01/08 03:37:04;;;;;;;1.50;1.40;;;;;;;;;;5029557;28;20403;-72
2022/01/08 03:39:30;;;;;;;2.50;1.60;;;;;;;;;;5029386;28;20114;-71
2022/01/08 03:41:55;;;;;;;1.63;1.50;;;;;;;;;;5028229;28;20032;-72
2022/01/08 03:44:21;;;;;;;1.77;1.60;;;;;;;;;;5029045;28;20032;-71
2022/01/08 03:46:46;;;;;;;1.50;1.40;;;;;;;;;;5029627;28;20108;-71
2022/01/08 03:49:25;;;;;;;1.90;1.70;;;;;;;;;;5028720;28;20489;-71
2022/01/08 03:51:52;;;;;;;1.85;1.63;;;;;;;;;;5029735;28;20025;-72
2022/01/08 03:54:18;;;;;;;2.15;1.75;;;;;;;;;;5028887;28;20030;-72
2022/01/08 03:56:43;;;;;;;2.53;1.90;;;;;;;;;;5021485;28;20110;-71
2022/01/08 03:59:08;;;;;;;3.40;1.85;;;;;;;;;;5009499;28;20029;-72
2022/01/08 04:01:33;;;;;;;2.00;1.80;;;;;;;;;;5014077;28;20044;-72
2022/01/08 04:03:59;;;;;;;3.38;2.22;;;;;;;;;;5029555;28;20075;-73
2022/01/08 04:06:24;;;;;;;2.33;1.90;;;;;;;;;;5028989;28;20048;-73
2022/01/08 04:08:56;;;;;;;2.42;1.75;;;;;;;;;;5028992;28;20026;-73
2022/01/08 04:11:21;;;;;;;1.95;1.73;;;;;;;;;;5029269;28;20061;-74
2022/01/08 04:13:47;;;;;;;3.15;1.80;;;;;;;;;;5020294;28;20076;-74
2022/01/08 04:16:17;;;;;;;2.30;1.92;;;;;;;;;;5009474;28;20084;-75
2022/01/08 04:18:42;;;;;;;2.17;1.70;;;;;;;;;;5009389;28;20021;-75
2022/01/08 04:21:58;;;;;;;2.85;2.10;;;;;;;;;;5009536;28;20480;-75
2022/01/08 04:24:10;;;;;;;2.35;1.63;;;;;;;;;;5009198;28;20061;-76
2022/01/08 04:26:35;;;;;;;2.22;1.45;;;;;;;;;;5009579;28;20025;-74
2022/01/08 04:29:01;;;;;;;2.17;1.52;;;;;;;;;;5028586;28;20037;-76
2022/01/08 04:31:27;;;;;;;3.83;1.83;;;;;;;;;;5028464;28;20376;-76
2022/01/08 04:33:53;;;;;;;2.15;1.80;;;;;;;;;;5028850;28;20530;-76
2022/01/08 04:36:20;;;;;;;3.08;1.80;;;;;;;;;;5029158;28;20514;-76
2022/01/08 04:38:45;;;;;;;1.73;1.52;;;;;;;;;;5029163;28;20032;-77
2022/01/08 04:41:11;;;;;;;2.33;1.90;;;;;;;;;;5028683;28;20025;-77
2022/01/08 04:43:38;;;;;;;3.47;1.88;;;;;;;;;;5028758;28;20544;-77
2022/01/08 04:46:06;;;;;;;2.78;1.77;;;;;;;;;;5028579;28;20017;-77
2022/01/08 04:48:31;;;;;;;3.65;2.20;;;;;;;;;;5027368;28;20446;-75
2022/01/08 04:50:56;;;;;;;3.83;2.20;;;;;;;;;;5029040;28;20114;-76
2022/01/08 04:53:22;;;;;;;4.68;2.38;;;;;;;;;;5029035;28;20249;-76
2022/01/08 04:55:47;;;;;;;6.03;2.13;;;;;;;;;;5028244;28;20083;-75
2022/01/08 04:58:13;;;;;;;5.15;2.45;;;;;;;;;;5028684;28;20471;-76
2022/01/08 05:00:39;;;;;;;5.18;2.13;;;;;;;;;;5028786;28;20033;-76
2022/01/08 05:03:04;;;;;;;5.85;2.55;;;;;;;;;;5032365;28;20467;-76
2022/01/08 05:05:29;;;;;;;5.38;2.50;;;;;;;;;;5016080;28;20476;-76
2022/01/08 05:07:55;;;;;;;4.95;3.03;;;;;;;;;;5012576;28;20527;-76
2022/01/08 05:10:20;;;;;;;5.30;3.00;;;;;;;;;;5012630;28;20034;-76
2022/01/08 05:12:46;;;;;;;6.15;2.95;;;;;;;;;;5012224;28;20026;-76
2022/01/08 05:15:11;;;;;;;7.00;3.10;;;;;;;;;;5011835;28;20032;-76
2022/01/08 05:17:39;;;;;;;8.82;3.50;;;;;;;;;;5012276;28;20044;-76
2022/01/08 05:20:07;;;;;;;7.22;3.00;;;;;;;;;;5015821;28;20033;-76
2022/01/08 05:25:21;;;;;;;4.25;2.70;;;;;;;;;;5031318;28;20021;-76
2022/01/08 05:27:48;;;;;;;4.22;2.70;;;;;;;;;;5031931;28;20026;-76
2022/01/08 05:30:15;;;;;;;4.68;2.85;;;;;;;;;;5031690;28;20022;-76
2022/01/08 05:32:41;;;;;;;4.65;2.70;;;;;;;;;;5031524;28;20498;-76
2022/01/08 05:35:07;;;;;;;6.28;3.13;;;;;;;;;;5031331;28;20037;-76
2022/01/08 05:37:32;;;;;;;3.85;2.85;;;;;;;;;;5031652;28;20500;-76
2022/01/08 05:39:58;;;;;;;3.47;2.33;;;;;;;;;;5018468;28;20029;-77
2022/01/08 05:42:23;;;;;;;4.72;3.00;;;;;;;;;;5032005;28;20095;-76
2022/01/08 05:44:48;;;;;;;3.85;2.80;;;;;;;;;;5029899;28;20044;-76
2022/01/08 05:47:14;;;;;;;4.55;2.47;;;;;;;;;;5031639;28;20028;-76
2022/01/08 05:49:40;;;;;;;4.40;2.80;;;;;;;;;;5031529;28;20029;-77
2022/01/08 05:52:07;;;;;;;8.00;3.20;;;;;;;;;;5031024;28;20029;-77
2022/01/08 05:54:33;;;;;;;3.90;2.83;;;;;;;;;;5029730;28;20029;-77
2022/01/08 05:56:58;;;;;;;6.35;3.28;;;;;;;;;;5015621;28;20120;-77
2022/01/08 05:59:26;;;;;;;3.75;2.53;;;;;;;;;;5013767;28;20132;-77
2022/01/08 06:01:52;;;;;;;8.20;2.80;;;;;;;;;;5031244;28;20029;-77
2022/01/08 06:04:17;;;;;;;3.50;2.50;;;;;;;;;;5030735;28;20037;-77
2022/01/08 06:06:44;;;;;;;5.90;3.00;;;;;;;;;;5029580;28;20131;-77
2022/01/08 06:09:09;;;;;;;5.03;3.50;;;;;;;;;;5031535;28;20037;-77
2022/01/08 06:11:34;;;;;;;5.50;3.70;;;;;;;;;;5030512;28;20021;-77
2022/01/08 06:14:01;;;;;;;6.90;3.80;;;;;;;;;;5030277;28;20108;-77
2022/01/08 06:16:32;;;;;;;5.35;3.10;;;;;;;;;;5030985;28;20198;-76
2022/01/08 06:18:58;;;;;;;4.85;3.10;;;;;;;;;;5011527;28;20148;-77
2022/01/08 06:21:23;;;;;;;5.30;3.40;;;;;;;;;;5011087;28;20124;-76
2022/01/08 06:23:48;;;;;;;7.45;3.78;;;;;;;;;;5010808;28;20064;-76
2022/01/08 06:26:13;;;;;;;7.78;3.95;;;;;;;;;;5010522;28;20022;-77
2022/01/08 06:28:40;;;;;;;6.70;4.00;;;;;;;;;;5013678;28;20030;-76
2022/01/08 06:31:05;;;;;;;68.43;45.90;;;;;;;;;;5030730;28;20029;-77
2022/01/08 06:33:30;;;;;;;21.08;12.85;;;;;;;;;;5030330;28;20372;-76
2022/01/08 06:35:56;;;;;;;11.20;5.75;;;;;;;;;;5030038;28;20029;-76
2022/01/08 06:38:21;;;;;;;7.60;4.28;;;;;;;;;;5030375;28;20475;-75
2022/01/08 06:40:46;;;;;;;8.05;3.83;;;;;;;;;;5030161;28;20109;-75
2022/01/08 06:43:12;;;;;;;9.07;4.32;;;;;;;;;;5030160;28;20087;-75
2022/01/08 06:45:37;;;;;;;10.32;4.18;;;;;;;;;;5028031;28;20060;-75
2022/01/08 06:48:03;;;;;;;9.48;4.68;;;;;;;;;;5029189;28;20025;-74
2022/01/08 06:50:28;;;;;;;10.30;4.28;;;;;;;;;;5014212;28;20493;-74
2022/01/08 06:52:55;;;;;;;8.23;4.40;;;;;;;;;;5021448;28;20446;-75
2022/01/08 06:55:20;;;;;;;10.82;4.70;;;;;;;;;;5029236;28;20479;-75
2022/01/08 06:57:46;;;;;;;9.38;4.82;;;;;;;;;;5028008;28;20057;-74
2022/01/08 07:00:11;;;;;;;11.80;5.38;;;;;;;;;;5026531;28;20025;-74
2022/01/08 07:02:37;;;;;;;11.73;5.85;;;;;;;;;;5029062;28;20049;-75
2022/01/08 07:05:02;;;;;;;10.18;5.78;;;;;;;;;;5022401;28;20092;-74
2022/01/08 07:07:28;;;;;;;15.57;7.13;;;;;;;;;;5028108;28;20025;-74
2022/01/08 07:09:53;;;;;;;12.35;6.10;;;;;;;;;;5018215;28;20029;-75
2022/01/08 07:12:18;;;;;;;10.00;5.03;;;;;;;;;;5022841;28;20075;-75
2022/01/08 07:14:43;;;;;;;10.65;5.35;;;;;;;;;;5026850;28;20368;-76
2022/01/08 07:17:09;;;;;;;15.40;6.07;;;;;;;;;;5029206;28;20537;-75
2022/01/08 07:19:34;;;;;;;13.48;7.43;;;;;;;;;;5029378;28;20464;-75
2022/01/08 07:22:00;;;;;;;8.30;5.13;;;;;;;;;;5025408;28;20040;-75
2022/01/08 07:24:26;;;;;;;9.18;5.68;;;;;;;;;;5008628;28;20022;-75
2022/01/08 07:26:51;;;;;;;12.60;5.70;;;;;;;;;;5017350;28;20033;-75
2022/01/08 07:29:16;;;;;;;10.00;4.93;;;;;;;;;;5028982;28;20112;-74
2022/01/08 07:31:42;;;;;;;10.65;5.85;;;;;;;;;;5029105;28;20542;-76
2022/01/08 07:34:07;;;;;;;10.15;5.15;;;;;;;;;;5029102;28;20030;-75
2022/01/08 07:36:32;;;;;;;9.73;4.75;;;;;;;;;;5035358;28;20025;-75
2022/01/08 07:38:58;;;;;;;11.65;4.60;;;;;;;;;;5049435;28;20043;-75
2022/01/08 07:41:23;;;;;;;11.93;4.97;;;;;;;;;;5033190;28;20069;-75
2022/01/08 07:43:48;;;;;;;10.40;4.50;;;;;;;;;;5038808;28;20079;-76
2022/01/08 07:46:14;;;;;;;12.85;5.15;;;;;;;;;;5035880;28;20031;-76
2022/01/08 07:48:40;;;;;;;34.67;14.65;;;;;;;;;;5040369;28;20103;-75
2022/01/08 07:51:06;;;;;;;12.95;5.13;;;;;;;;;;5029333;28;20076;-76
2022/01/08 07:53:31;;;;;;;10.48;4.60;;;;;;;;;;5017800;28;20034;-76
2022/01/08 07:55:57;;;;;;;10.95;4.95;;;;;;;;;;5014654;28;20052;-76
2022/01/08 07:58:22;;;;;;;9.30;5.68;;;;;;;;;;5029582;28;20079;-76
2022/01/08 08:00:48;;;;;;;7.55;4.22;;;;;;;;;;5029247;28;20076;-77
2022/01/08 08:03:14;;;;;;;10.95;5.82;;;;;;;;;;5029295;28;20049;-77
2022/01/08 08:05:40;;;;;;;10.02;5.30;;;;;;;;;;5020425;28;20084;-77
2022/01/08 08:08:27;;;;;;;6.95;4.68;;;;;;;;;;5013496;28;20526;-77
2022/01/08 08:10:52;;;;;;;9.43;4.63;;;;;;;;;;5025676;28;20029;-77
2022/01/08 08:13:19;;;;;;;9.63;4.30;;;;;;;;;;5029056;28;20029;-77
2022/01/08 08:15:45;;;;;;;8.48;4.38;;;;;;;;;;5025054;28;20046;-77
2022/01/08 08:18:11;;;;;;;9.82;5.20;;;;;;;;;;5024849;28;20041;-77
2022/01/08 08:20:37;;;;;;;11.40;5.20;;;;;;;;;;5022906;28;20091;-77
2022/01/08 08:23:02;;;;;;;10.05;4.93;;;;;;;;;;5027942;28;20033;-78
2022/01/08 08:25:27;;;;;;;7.95;3.83;;;;;;;;;;5028583;28;20030;-77
2022/01/08 08:27:53;;;;;;;8.15;4.32;;;;;;;;;;5025924;28;20064;-77
2022/01/08 08:30:18;;;;;;;13.32;4.82;;;;;;;;;;5028687;28;20490;-77
2022/01/08 08:32:44;;;;;;;11.27;5.13;;;;;;;;;;5026798;28;20029;-77
2022/01/08 08:35:10;;;;;;;9.77;4.30;;;;;;;;;;5018991;28;20033;-77
2022/01/08 08:37:36;;;;;;;8.13;3.83;;;;;;;;;;5012945;28;20025;-77
2022/01/08 08:40:05;;;;;;;10.43;4.70;;;;;;;;;;5012949;28;20026;-77
2022/01/08 08:42:30;;;;;;;7.15;4.13;;;;;;;;;;5015251;28;20564;-77
2022/01/08 08:44:56;;;;;;;9.13;4.10;;;;;;;;;;5032233;28;20029;-77
2022/01/08 08:47:21;;;;;;;10.63;4.95;;;;;;;;;;5031942;28;20033;-77
2022/01/08 08:49:46;;;;;;;13.95;5.45;;;;;;;;;;5031627;28;20037;-77
2022/01/08 08:52:12;;;;;;;8.70;4.93;;;;;;;;;;5032229;28;20048;-77
2022/01/08 08:54:40;;;;;;;13.90;7.22;;;;;;;;;;5031809;28;20022;-77
2022/01/08 08:57:05;;;;;;;41.00;18.92;;;;;;;;;;5028345;28;20491;-77
2022/01/08 08:59:31;;;;;;;74.65;33.58;;;;;;;;;;5029618;28;20029;-76
2022/01/08 09:01:56;;;;;;;17.90;8.48;;;;;;;;;;5032179;28;20087;-76
2022/01/08 09:04:23;;;;;;;7.78;3.47;;;;;;;;;;5031736;28;20025;-76
2022/01/08 09:06:48;;;;;;;10.13;4.00;;;;;;;;;;5032158;28;20025;-76
2022/01/08 09:09:13;;;;;;;8.73;3.72;;;;;;;;;;5032018;28;20386;-76
2022/01/08 09:11:39;;;;;;;7.82;3.65;;;;;;;;;;5031619;28;20032;-76
2022/01/08 09:14:04;;;;;;;16.15;5.47;;;;;;;;;;5031283;28;20033;-77
2022/01/08 09:16:30;;;;;;;27.63;11.57;;;;;;;;;;5031820;28;20037;-76
2022/01/08 09:18:55;;;;;;;13.20;5.78;;;;;;;;;;5031632;28;20030;-76
2022/01/08 09:21:20;;;;;;;11.95;3.40;;;;;;;;;;5031467;28;20052;-76
2022/01/08 09:23:46;;;;;;;5.28;3.17;;;;;;;;;;5024593;28;20483;-76
2022/01/08 09:26:11;;;;;;;11.18;7.30;;;;;;;;;;5030561;28;20379;-76
2022/01/08 09:28:37;;;;;;;6.47;2.90;;;;;;;;;;5031082;28;20025;-76
2022/01/08 09:31:03;;;;;;;5.63;3.50;;;;;;;;;;5030299;28;20029;-76
2022/01/08 09:33:29;;;;;;;7.63;3.70;;;;;;;;;;5031379;28;20034;-76
2022/01/08 09:35:54;;;;;;;8.90;4.00;;;;;;;;;;5027305;28;20519;-76
2022/01/08 09:38:20;;;;;;;5.95;2.95;;;;;;;;;;5030695;28;20064;-76
2022/01/08 09:40:46;;;;;;;10.25;3.65;;;;;;;;;;5030292;28;20029;-76
2022/01/08 09:43:12;;;;;;;9.00;4.40;;;;;;;;;;5029329;28;21225;-76
2022/01/08 09:45:37;;;;;;;5.75;3.10;;;;;;;;;;5031082;28;20437;-75
2022/01/08 09:48:03;;;;;;;5.03;2.95;;;;;;;;;;5029427;28;20278;-76
2022/01/08 09:50:28;;;;;;;8.45;3.00;;;;;;;;;;5030676;28;20033;-75
2022/01/08 09:52:57;;;;;;;7.45;3.22;;;;;;;;;;5030404;28;20364;-75
2022/01/08 09:55:25;;;;;;;6.20;3.05;;;;;;;;;;5031411;28;20021;-75
2022/01/08 09:57:50;;;;;;;9.20;3.78;;;;;;;;;;5031700;28;20029;-76
2022/01/08 10:00:16;;;;;;;5.40;3.03;;;;;;;;;;5023762;28;20108;-75
2022/01/08 10:02:42;;;;;;;6.63;2.95;;;;;;;;;;5027511;28;20037;-76
2022/01/08 10:05:14;;;;;;;8.65;3.38;;;;;;;;;;5032532;28;20021;-75
2022/01/08 10:07:40;;;;;;;7.72;4.80;;;;;;;;;;5031934;28;20033;-76
2022/01/08 10:10:17;;;;;;;5.38;3.42;;;;;;;;;;5032163;28;20120;-76
2022/01/08 10:12:54;;;;;;;6.32;3.55;;;;;;;;;;5029154;28;20666;-76
2022/01/08 10:18:25;;;;;;;8.55;4.00;;;;;;;;;;5031141;28;20036;-75
2022/01/08 10:20:51;;;;;;;7.20;4.28;;;;;;;;;;5030128;28;20037;-75
2022/01/08 10:23:25;;;;;;;7.38;3.38;;;;;;;;;;5028900;28;20108;-75
2022/01/08 10:26:08;;;;;;;6.45;3.15;;;;;;;;;;5027489;28;20112;-77
2022/01/08 10:28:40;;;;;;;8.25;3.50;;;;;;;;;;5027504;28;20033;-77
2022/01/08 10:31:15;;;;;;;7.70;3.58;;;;;;;;;;5024014;28;20035;-77
2022/01/08 10:33:53;;;;;;;4.97;2.95;;;;;;;;;;5030161;28;20037;-72
2022/01/08 10:36:28;;;;;;;7.70;3.55;;;;;;;;;;5028600;28;20402;-75
2022/01/08 10:38:55;;;;;;;4.80;3.47;;;;;;;;;;5029144;28;20395;-75
2022/01/08 10:41:21;;;;;;;5.95;4.05;;;;;;;;;;5029856;28;20387;-74
2022/01/08 10:43:47;;;;;;;10.05;3.40;;;;;;;;;;5029965;28;20032;-76
2022/01/08 10:46:18;;;;;;;6.05;3.85;;;;;;;;;;5029164;28;20497;-75
2022/01/08 10:48:49;;;;;;;8.02;3.85;;;;;;;;;;5030191;28;20124;-78
2022/01/08 10:51:24;;;;;;;6.78;3.63;;;;;;;;;;5026832;28;20060;-76
2022/01/08 10:54:11;;;;;;;7.05;3.33;;;;;;;;;;5028392;28;20047;-75
2022/01/08 10:56:49;;;;;;;8.43;3.58;;;;;;;;;;5030609;28;20028;-74
2022/01/08 10:59:22;;;;;;;5.82;3.50;;;;;;;;;;5028060;28;20116;-76
2022/01/08 11:01:54;;;;;;;5.10;3.17;;;;;;;;;;5025664;28;20057;-75
2022/01/08 11:04:34;;;;;;;6.95;3.35;;;;;;;;;;5028941;28;20502;-75
2022/01/08 11:07:12;;;;;;;4.15;2.70;;;;;;;;;;5029913;28;20033;-74
2022/01/08 11:09:39;;;;;;;5.90;2.92;;;;;;;;;;5029843;28;20045;-77
2022/01/08 11:12:07;;;;;;;6.97;3.47;;;;;;;;;;5030003;28;20029;-74
2022/01/08 11:17:22;;;;;;;9.23;3.33;;;;;;;;;;5030205;28;20116;-75
2022/01/08 11:19:51;;;;;;;7.18;3.78;;;;;;;;;;5029302;28;20079;-77
2022/01/08 11:22:20;;;;;;;6.18;4.20;;;;;;;;;;5028701;28;20471;-76
2022/01/08 11:24:52;;;;;;;8.27;4.10;;;;;;;;;;5029736;28;20081;-77
2022/01/08 11:27:22;;;;;;;6.97;4.07;;;;;;;;;;5029736;28;20039;-76
2022/01/08 11:30:09;;;;;;;6.45;3.70;;;;;;;;;;5029331;28;20487;-75
2022/01/08 11:32:35;;;;;;;10.35;4.75;;;;;;;;;;5028535;28;20063;-77
2022/01/08 11:35:04;;;;;;;5.78;3.42;;;;;;;;;;5028678;28;20041;-75
2022/01/08 11:37:30;;;;;;;4.82;3.05;;;;;;;;;;5029023;28;20053;-75
2022/01/08 11:39:59;;;;;;;5.15;3.42;;;;;;;;;;5028762;28;20035;-76
2022/01/08 11:42:26;;;;;;;11.45;4.97;;;;;;;;;;5027645;28;20555;-77
2022/01/08 11:44:54;;;;;;;6.63;2.60;;;;;;;;;;5029319;28;20509;-76
2022/01/08 11:47:21;;;;;;;8.05;3.03;;;;;;;;;;5029201;28;20052;-76
2022/01/08 11:49:48;;;;;;;7.18;2.70;;;;;;;;;;5028630;28;20029;-76
2022/01/08 11:52:14;;;;;;;6.40;3.70;;;;;;;;;;5029010;28;20021;-78
2022/01/08 11:54:44;;;;;;;9.40;5.03;;;;;;;;;;5025243;28;20483;-76
2022/01/08 11:57:15;;;;;;;9.23;3.33;;;;;;;;;;5028717;28;20435;-76
2022/01/08 11:59:40;;;;;;;7.28;3.15;;;;;;;;;;5027963;28;20053;-76
2022/01/08 12:02:08;;;;;;;4.93;2.40;;;;;;;;;;5026658;28;20487;-76
2022/01/08 12:04:34;;;;;;;5.20;3.65;;;;;;;;;;5029092;28;20029;-78
2022/01/08 12:07:31;;;;;;;4.70;2.92;;;;;;;;;;5028149;28;20045;-76
2022/01/08 12:10:04;;;;;;;4.45;2.78;;;;;;;;;;5030195;28;20444;-76
2022/01/08 12:12:46;;;;;;;;;;;;;;;;;;5032522;28;20025;-75
2022/01/08 12:15:13;;;;;;;47.80;17.63;;;;;;;;;;5032821;28;19920;-77
2022/01/08 12:17:58;;;;;;;57.80;20.25;;;;;;;;;;5032348;28;20438;-77
2022/01/08 12:20:41;;;;;;;20.17;10.48;;;;;;;;;;5032623;28;20040;-76
2022/01/08 12:23:25;;;;;;;3.63;2.25;;;;;;;;;;5026818;28;20025;-76
2022/01/08 12:25:51;;;;;;;5.10;2.08;;;;;;;;;;5027932;28;20029;-77
2022/01/08 12:28:38;;;;;;;4.93;2.70;;;;;;;;;;5025176;28;20387;-77
2022/01/08 12:31:30;;;;;;;4.07;1.90;;;;;;;;;;5027025;28;20033;-74
2022/01/08 12:34:23;;;;;;;7.10;1.98;;;;;;;;;;5023220;28;20029;-79
2022/01/08 12:37:07;;;;;;;7.75;4.93;;;;;;;;;;5025743;28;20491;-78
2022/01/08 12:39:47;;;;;;;5.65;3.30;;;;;;;;;;5028418;28;20038;-76
2022/01/08 12:42:24;;;;;;;7.35;3.30;;;;;;;;;;5025703;28;20025;-76
2022/01/08 12:45:25;;;;;;;4.78;2.80;;;;;;;;;;5031765;28;20407;-76
2022/01/08 12:48:00;;;;;;;5.32;3.03;;;;;;;;;;5022668;28;20034;-77
2022/01/08 12:50:37;;;;;;;4.80;2.60;;;;;;;;;;5029862;28;20021;-75
2022/01/08 12:53:05;;;;;;;3.83;2.45;;;;;;;;;;5030423;28;20029;-76
2022/01/08 12:55:31;;;;;;;4.38;3.38;;;;;;;;;;5028978;28;20550;-76
2022/01/08 12:57:58;;;;;;;5.93;3.13;;;;;;;;;;5041316;28;20105;-79
2022/01/08 13:00:24;;;;;;;9.63;4.85;;;;;;;;;;5024182;28;20038;-76
2022/01/08 13:02:49;;;;;;;9.13;6.75;;;;;;;;;;5022773;28;20021;-76
2022/01/08 13:05:15;;;;;;;8.15;4.28;;;;;;;;;;5024282;28;20022;-76
2022/01/08 13:07:51;;;;;;;6.55;3.83;;;;;;;;;;5028290;28;20069;-76
2022/01/08 13:10:17;;;;;;;6.47;2.67;;;;;;;;;;5030632;28;20057;-76
2022/01/08 13:12:43;;;;;;;4.68;2.70;;;;;;;;;;5029722;28;20029;-77
2022/01/08 13:15:09;;;;;;;4.90;2.30;;;;;;;;;;5029904;28;20026;-76
2022/01/08 13:17:35;;;;;;;8.55;2.72;;;;;;;;;;5030936;28;20060;-77
2022/01/08 13:20:05;;;;;;;4.43;2.28;;;;;;;;;;5025849;28;20061;-76
2022/01/08 13:22:33;;;;;;;5.18;2.42;;;;;;;;;;5020495;28;20506;-76
2022/01/08 13:24:59;;;;;;;4.43;2.20;;;;;;;;;;5030906;28;20057;-77
2022/01/08 13:27:24;;;;;;;4.78;2.50;;;;;;;;;;5030345;28;20107;-76
2022/01/08 13:29:56;;;;;;;6.45;2.90;;;;;;;;;;5031341;28;20398;-76
2022/01/08 13:32:23;;;;;;;3.00;2.33;;;;;;;;;;5029652;28;20112;-77
2022/01/08 13:34:48;;;;;;;3.53;2.00;;;;;;;;;;5029937;28;20487;-77
2022/01/08 13:37:16;;;;;;;3.78;1.63;;;;;;;;;;5032271;28;20021;-77
2022/01/08 13:39:47;;;;;;;6.78;2.88;;;;;;;;;;5031219;28;20037;-79
2022/01/08 13:42:30;;;;;;;6.85;2.60;;;;;;;;;;5030235;28;20129;-77
2022/01/08 13:45:14;;;;;;;3.72;2.10;;;;;;;;;;5016164;28;20462;-77
2022/01/08 13:47:48;;;;;;;7.20;3.10;;;;;;;;;;5025895;28;20139;-79
2022/01/08 13:50:21;;;;;;;3.47;2.08;;;;;;;;;;5031110;28;20037;-76
2022/01/08 13:52:56;;;;;;;7.97;4.55;;;;;;;;;;5030689;28;20525;-78
2022/01/08 13:55:23;;;;;;;5.45;2.50;;;;;;;;;;5031205;28;20040;-77
2022/01/08 13:58:04;;;;;;;5.65;3.08;;;;;;;;;;5030773;28;20036;-78
2022/01/08 14:00:32;;;;;;;3.30;1.80;;;;;;;;;;5030928;28;20029;-77
2022/01/08 14:02:58;;;;;;;5.05;2.15;;;;;;;;;;5029520;28;20091;-77
2022/01/08 14:05:26;;;;;;;4.45;1.80;;;;;;;;;;5030418;28;20118;-78
2022/01/08 14:07:51;;;;;;;2.22;1.50;;;;;;;;;;5031419;28;20506;-76
2022/01/08 14:10:17;;;;;;;3.45;2.35;;;;;;;;;;5029476;28;20056;-77
2022/01/08 14:13:06;;;;;;;4.85;1.80;;;;;;;;;;5029984;28;20112;-77
2022/01/08 14:15:32;;;;;;;3.83;1.77;;;;;;;;;;5030284;28;20025;-76
2022/01/08 14:18:07;;;;;;;4.15;2.58;;;;;;;;;;5029212;28;20250;-77
2022/01/08 14:20:33;;;;;;;3.35;1.90;;;;;;;;;;5030913;28;20495;-76
2022/01/08 14:23:13;;;;;;;14.30;5.30;;;;;;;;;;5028168;28;20029;-77
2022/01/08 14:25:39;;;;;;;26.95;9.77;;;;;;;;;;5030895;28;20108;-77
2022/01/08 14:28:22;;;;;;;2.90;1.90;;;;;;;;;;5030032;28;20251;-77
2022/01/08 14:30:49;;;;;;;12.88;4.63;;;;;;;;;;5029496;28;20037;-76
2022/01/08 14:33:14;;;;;;;24.63;10.27;;;;;;;;;;5028997;28;20025;-77
2022/01/08 14:35:39;;;;;;;14.25;6.30;;;;;;;;;;5027831;28;20395;-77
2022/01/08 14:38:05;;;;;;;8.90;5.25;;;;;;;;;;5030763;28;20037;-78
2022/01/08 14:40:33;;;;;;;3.72;2.00;;;;;;;;;;5029719;28;20036;-77
2022/01/08 14:43:01;;;;;;;4.20;1.88;;;;;;;;;;5031398;28;20406;-78
2022/01/08 14:45:27;;;;;;;5.70;2.17;;;;;;;;;;5029543;28;20525;-77
2022/01/08 14:47:56;;;;;;;2.75;1.25;;;;;;;;;;5029234;28;20029;-77
2022/01/08 14:50:24;;;;;;;2.88;2.08;;;;;;;;;;5030045;28;20025;-76
2022/01/08 14:52:51;;;;;;;5.65;3.42;;;;;;;;;;5031292;28;20108;-78
2022/01/08 14:55:20;;;;;;;2.40;1.60;;;;;;;;;;5029239;28;20109;-75
2022/01/08 14:57:46;;;;;;;3.67;1.70;;;;;;;;;;5030560;28;20147;-77
2022/01/08 15:00:15;;;;;;;3.42;1.52;;;;;;;;;;5031301;28;20061;-77
2022/01/08 15:02:41;;;;;;;5.97;5.05;;;;;;;;;;5032723;28;20033;-78
2022/01/08 15:05:09;;;;;;;3.65;2.13;;;;;;;;;;5028673;28;20116;-76
2022/01/08 15:07:36;;;;;;;5.25;2.78;;;;;;;;;;5025573;28;20116;-78